createdAt,value
2023-03-18T00:02:18.714Z,100894.90
2023-03-18T00:05:07.650Z,100897.28
2023-03-18T00:07:54.770Z,100895.93
2023-03-18T00:10:41.425Z,100897.90
2023-03-18T00:13:29.391Z,100897.86
2023-03-18T00:16:17.189Z,100897.20
2023-03-18T00:19:04.646Z,100896.35
2023-03-18T00:21:51.861Z,100892.80
2023-03-18T00:24:38.488Z,100887.79
2023-03-18T00:27:25.325Z,100893.06
2023-03-18T00:30:12.961Z,100889.15
2023-03-18T00:33:00.323Z,100888.86
2023-03-18T00:35:48.185Z,100884.30
2023-03-18T00:38:35.697Z,100878.48
2023-03-18T00:41:22.296Z,100876.14
2023-03-18T00:44:09.448Z,100873.90
2023-03-18T00:46:56.020Z,100871.71
2023-03-18T00:49:42.837Z,100869.02
2023-03-18T00:52:32.023Z,100866.19
2023-03-18T00:55:18.737Z,100864.60
2023-03-18T00:58:05.436Z,100862.59
2023-03-18T01:00:52.744Z,100858.91
2023-03-18T01:03:44.110Z,100855.73
2023-03-18T01:06:34.091Z,100859.84
2023-03-18T01:09:21.099Z,100845.37
2023-03-18T01:12:09.766Z,100850.05
2023-03-18T01:14:56.801Z,100845.19
2023-03-18T01:17:44.396Z,100846.12
2023-03-18T01:20:31.322Z,100839.45
2023-03-18T01:23:18.517Z,100837.73
2023-03-18T01:26:07.731Z,100835.48
2023-03-18T01:28:54.260Z,100828.20
2023-03-18T01:31:41.161Z,100827.17
2023-03-18T01:34:28.950Z,100819.60
2023-03-18T01:37:15.235Z,100820.20
2023-03-18T01:40:01.962Z,100809.86
2023-03-18T01:42:56.731Z,100812.83
2023-03-18T01:45:50.054Z,100817.95
2023-03-18T01:48:39.973Z,100815.53
2023-03-18T01:51:27.452Z,100815.84
2023-03-18T01:54:15.591Z,100816.91
2023-03-18T01:57:03.815Z,100813.83
2023-03-18T01:59:53.287Z,100810.70
2023-03-18T02:02:42.523Z,100807.73
2023-03-18T02:05:29.826Z,100812.95
2023-03-18T02:08:17.447Z,100811.41
2023-03-18T02:11:04.742Z,100811.77
2023-03-18T02:13:52.790Z,100806.52
2023-03-18T02:16:51.658Z,100802.90
2023-03-18T02:20:18.770Z,100813.50
2023-03-18T02:23:22.748Z,100810.94
2023-03-18T02:26:20.976Z,100817.47
2023-03-18T02:29:09.043Z,100811.99
2023-03-18T02:31:58.684Z,100805.92
2023-03-18T02:34:45.713Z,100806.11
2023-03-18T02:37:34.287Z,100801.32
2023-03-18T02:40:31.455Z,100796.48
2023-03-18T02:43:23.665Z,100803.11
2023-03-18T02:46:13.856Z,100796.67
2023-03-18T02:49:02.659Z,100800.58
2023-03-18T02:51:50.494Z,100792.63
2023-03-18T02:54:37.498Z,100798.27
2023-03-18T02:57:23.886Z,100798.55
2023-03-18T03:00:13.603Z,100796.93
2023-03-18T03:03:01.852Z,100791.54
2023-03-18T03:05:48.790Z,100779.30
2023-03-18T03:08:35.649Z,100777.17
2023-03-18T03:11:23.955Z,100777.30
2023-03-18T03:14:11.812Z,100781.16
2023-03-18T03:16:58.939Z,100783.16
2023-03-18T03:19:46.204Z,100782.79
2023-03-18T03:22:34.379Z,100777.41
2023-03-18T03:25:21.031Z,100781.69
2023-03-18T03:28:08.777Z,100778.77
2023-03-18T03:30:55.969Z,100781.88
2023-03-18T03:33:44.085Z,100776.97
2023-03-18T03:36:31.066Z,100778.89
2023-03-18T03:39:17.651Z,100775.36
2023-03-18T03:42:04.020Z,100778.26
2023-03-18T03:44:51.062Z,100773.25
2023-03-18T03:47:37.660Z,100776.52
2023-03-18T03:50:24.283Z,100774.26
2023-03-18T03:53:11.141Z,100777.23
2023-03-18T03:55:59.247Z,100774.52
2023-03-18T03:58:47.038Z,100770.99
2023-03-18T04:01:34.848Z,100772.98
2023-03-18T04:04:21.551Z,100778.30
2023-03-18T04:07:08.347Z,100776.39
2023-03-18T04:09:56.097Z,100778.18
2023-03-18T04:12:45.967Z,100784.48
2023-03-18T04:15:32.789Z,100785.60
2023-03-18T04:18:19.870Z,100787.02
2023-03-18T04:21:08.171Z,100785.58
2023-03-18T04:23:55.318Z,100784.50
2023-03-18T04:26:42.149Z,100789.70
2023-03-18T04:29:29.194Z,100791.73
2023-03-18T04:32:16.223Z,100792.21
2023-03-18T04:35:03.485Z,100793.23
2023-03-18T04:37:50.568Z,100798.23
2023-03-18T04:40:37.015Z,100797.20
2023-03-18T04:43:23.360Z,100797.17
2023-03-18T04:46:11.132Z,100800.95
2023-03-18T04:48:58.620Z,100799.29
2023-03-18T04:51:45.794Z,100804.15
2023-03-18T04:54:32.413Z,100796.39
2023-03-18T04:57:19.621Z,100800.70
2023-03-18T05:00:10.416Z,100804.58
2023-03-18T05:02:58.259Z,100807.99
2023-03-18T05:05:45.161Z,100805.38
2023-03-18T05:08:31.973Z,100806.95
2023-03-18T05:11:19.552Z,100807.25
2023-03-18T05:14:06.337Z,100797.46
2023-03-18T05:16:53.838Z,100796.27
2023-03-18T05:19:41.069Z,100791.40
2023-03-18T05:22:27.573Z,100789.42
2023-03-18T05:25:13.932Z,100792.46
2023-03-18T05:28:01.734Z,100795.98
2023-03-18T05:30:48.546Z,100800.59
2023-03-18T05:33:35.378Z,100802.93
2023-03-18T05:36:22.366Z,100804.41
2023-03-18T05:39:08.915Z,100797.91
2023-03-18T05:41:54.964Z,100792.42
2023-03-18T05:44:42.329Z,100789.61
2023-03-18T05:47:28.763Z,100790.77
2023-03-18T05:50:17.252Z,100787.77
2023-03-18T05:53:05.608Z,100790.40
2023-03-18T05:55:52.087Z,100785.83
2023-03-18T05:58:38.988Z,100779.68
2023-03-18T06:01:26.088Z,100781.89
2023-03-18T06:04:13.354Z,100781.90
2023-03-18T06:07:01.563Z,100780.31
2023-03-18T06:09:48.920Z,100778.62
2023-03-18T06:12:36.168Z,100789.88
2023-03-18T06:15:24.584Z,100789.78
2023-03-18T06:18:11.441Z,100789.42
2023-03-18T06:20:58.585Z,100791.23
2023-03-18T06:23:45.580Z,100786.15
2023-03-18T06:26:32.919Z,100793.85
2023-03-18T06:29:20.497Z,100786.45
2023-03-18T06:32:08.370Z,100787.27
2023-03-18T06:34:55.983Z,100777.85
2023-03-18T06:37:43.475Z,100787.49
2023-03-18T06:40:31.066Z,100782.70
2023-03-18T06:43:18.940Z,100794.96
2023-03-18T06:46:06.222Z,100793.12
2023-03-18T06:48:54.771Z,100794.19
2023-03-18T06:51:44.589Z,100800.92
2023-03-18T06:54:31.468Z,100797.98
2023-03-18T06:57:18.938Z,100791.31
2023-03-18T07:00:06.892Z,100782.81
2023-03-18T07:02:54.034Z,100798.05
2023-03-18T07:05:42.346Z,100801.59
2023-03-18T07:08:29.408Z,100796.98
2023-03-18T07:11:17.007Z,100797.90
2023-03-18T07:14:04.450Z,100796.63
2023-03-18T07:16:52.243Z,100786.61
2023-03-18T07:19:40.173Z,100797.27
2023-03-18T07:22:36.547Z,100789.46
2023-03-18T07:25:23.629Z,100794.00
2023-03-18T07:28:11.880Z,100804.86
2023-03-18T07:30:58.790Z,100797.22
2023-03-18T07:33:45.071Z,100799.13
2023-03-18T07:36:31.971Z,100797.34
2023-03-18T07:39:18.536Z,100795.21
2023-03-18T07:42:06.738Z,100808.33
2023-03-18T07:44:53.085Z,100804.81
2023-03-18T07:47:39.788Z,100812.46
2023-03-18T07:50:26.489Z,100808.78
2023-03-18T07:53:16.566Z,100807.86
2023-03-18T07:56:03.486Z,100801.97
2023-03-18T07:58:51.097Z,100804.48
2023-03-18T08:01:37.628Z,100806.73
2023-03-18T08:04:25.358Z,100806.02
2023-03-18T08:07:18.707Z,100801.03
2023-03-18T08:10:11.596Z,100799.06
2023-03-18T08:13:00.627Z,100802.23
2023-03-18T08:16:19.652Z,100798.90
2023-03-18T08:29:46.929Z,100796.92
2023-03-18T08:32:44.800Z,100787.80
2023-03-18T08:36:52.393Z,100796.74
2023-03-18T08:51:35.196Z,100780.52
2023-03-18T08:54:38.716Z,100777.45
2023-03-18T09:08:59.489Z,100769.14
2023-03-18T09:12:15.715Z,100760.09
2023-03-18T09:15:35.187Z,100757.84
2023-03-18T09:20:02.964Z,100751.58
2023-03-18T09:23:18.385Z,100761.38
2023-03-18T09:26:48.601Z,100755.13
2023-03-18T09:30:51.175Z,100758.83
2023-03-18T09:34:25.785Z,100757.52
2023-03-18T09:38:30.322Z,100754.83
2023-03-18T09:42:31.536Z,100757.86
2023-03-18T09:46:04.260Z,100753.36
2023-03-18T09:49:40.875Z,100746.36
2023-03-18T09:53:26.997Z,100748.76
2023-03-18T09:56:36.272Z,100748.61
2023-03-18T10:00:30.102Z,100737.70
2023-03-18T10:03:56.529Z,100736.56
2023-03-18T10:06:45.795Z,100736.13
2023-03-18T10:14:08.899Z,100738.44
2023-03-18T10:17:44.833Z,100732.84
2023-03-18T10:22:25.621Z,100728.89
2023-03-18T10:25:35.685Z,100725.11
2023-03-18T10:30:05.583Z,100725.29
2023-03-18T10:43:38.255Z,100709.31
2023-03-18T10:46:38.767Z,100704.13
2023-03-18T10:50:43.819Z,100708.02
2023-03-18T10:53:39.700Z,100705.27
2023-03-18T10:56:32.746Z,100703.38
2023-03-18T11:00:20.652Z,100698.67
2023-03-18T11:02:44.994Z,100704.13
2023-03-18T11:16:32.141Z,100691.50
2023-03-18T11:19:51.713Z,100689.56
2023-03-18T11:23:36.189Z,100688.72
2023-03-18T11:28:19.672Z,100676.34
2023-03-18T11:31:21.305Z,100666.50
2023-03-18T11:46:12.137Z,100665.17
2023-03-18T12:00:56.082Z,100654.70
2023-03-18T12:42:30.268Z,100634.27
2023-03-18T12:56:32.079Z,100624.98
2023-03-18T13:10:48.382Z,100614.81
2023-03-18T13:25:41.455Z,100602.16
2023-03-18T13:40:54.798Z,100590.33
2023-03-18T13:44:43.662Z,100583.11
2023-03-18T13:59:09.271Z,100573.09
2023-03-18T14:16:13.832Z,100557.67
2023-03-18T14:33:36.362Z,100554.42
2023-03-18T14:37:32.195Z,100549.66
2023-03-18T14:51:35.435Z,100538.61
2023-03-18T15:05:15.309Z,100527.84
2023-03-18T15:18:56.578Z,100525.61
2023-03-18T15:22:04.647Z,100514.73
2023-03-18T15:25:05.521Z,100514.34
2023-03-18T15:28:17.974Z,100511.92
2023-03-18T15:31:08.426Z,100506.09
2023-03-18T15:34:18.944Z,100510.22
2023-03-18T15:37:41.961Z,100516.48
2023-03-18T15:40:35.463Z,100515.29
2023-03-18T15:43:31.499Z,100520.61
2023-03-18T15:59:28.669Z,100521.84
2023-03-18T16:02:47.567Z,100518.14
2023-03-18T16:06:26.400Z,100524.16
2023-03-18T16:10:05.342Z,100523.48
2023-03-18T16:13:44.098Z,100526.09
2023-03-18T16:16:55.305Z,100529.07
2023-03-18T16:20:54.377Z,100527.86
2023-03-18T16:24:50.739Z,100535.52
2023-03-18T16:29:06.240Z,100532.80
2023-03-18T16:32:40.757Z,100530.17
2023-03-18T16:35:57.072Z,100532.09
2023-03-18T16:39:34.317Z,100535.20
2023-03-18T16:43:03.243Z,100535.94
2023-03-18T16:47:01.598Z,100534.87
2023-03-18T16:51:03.133Z,100539.80
2023-03-18T16:54:41.917Z,100540.64
2023-03-18T16:58:21.138Z,100540.66
2023-03-18T17:01:07.888Z,100542.23
2023-03-18T17:03:56.449Z,100548.11
2023-03-18T17:06:43.869Z,100550.54
2023-03-18T17:09:32.264Z,100551.01
2023-03-18T17:12:21.694Z,100550.33
2023-03-18T17:15:12.842Z,100547.34
2023-03-18T17:18:00.037Z,100549.86
2023-03-18T17:20:48.954Z,100547.98
2023-03-18T17:25:27.013Z,100547.81
2023-03-18T17:28:58.701Z,100547.83
2023-03-18T17:32:26.184Z,100548.77
2023-03-18T17:35:17.698Z,100554.55
2023-03-18T17:38:17.573Z,100557.17
2023-03-18T17:41:18.822Z,100560.50
2023-03-18T17:45:04.250Z,100562.23
2023-03-18T18:00:00.899Z,100568.43
2023-03-18T18:13:31.096Z,100559.73
2023-03-18T18:16:19.587Z,100557.56
2023-03-18T18:19:07.707Z,100553.90
2023-03-18T18:21:54.934Z,100555.38
2023-03-18T18:24:44.146Z,100555.38
2023-03-18T18:27:31.001Z,100550.02
2023-03-18T18:30:22.586Z,100546.30
2023-03-18T18:33:09.404Z,100545.70
2023-03-18T18:36:01.653Z,100542.31
2023-03-18T18:38:47.994Z,100538.84
2023-03-18T18:41:34.447Z,100539.27
2023-03-18T18:44:21.807Z,100538.43
2023-03-18T18:49:31.350Z,100538.08
2023-03-18T18:52:19.447Z,100539.83
2023-03-18T18:55:11.651Z,100538.90
2023-03-18T18:57:58.599Z,100542.59
2023-03-18T19:00:49.917Z,100542.79
2023-03-18T19:03:37.042Z,100546.07
2023-03-18T19:06:27.382Z,100544.96
2023-03-18T19:09:19.916Z,100544.40
2023-03-18T19:12:15.710Z,100543.63
2023-03-18T19:15:15.348Z,100547.77
2023-03-18T19:18:07.480Z,100551.13
2023-03-18T19:20:59.572Z,100549.90
2023-03-18T19:23:46.836Z,100550.86
2023-03-18T19:26:33.322Z,100547.02
2023-03-18T19:29:20.534Z,100551.29
2023-03-18T19:32:14.808Z,100548.55
2023-03-18T19:35:03.464Z,100550.42
2023-03-18T19:37:50.445Z,100550.13
2023-03-18T19:40:37.271Z,100551.00
2023-03-18T19:43:25.068Z,100552.27
2023-03-18T19:46:28.338Z,100555.19
2023-03-18T19:49:28.029Z,100558.50
2023-03-18T19:52:28.178Z,100556.54
2023-03-18T19:55:16.594Z,100558.55
2023-03-18T19:58:05.939Z,100558.85
2023-03-18T20:00:53.949Z,100551.77
2023-03-18T20:03:40.744Z,100551.48
2023-03-18T20:06:27.654Z,100549.32
2023-03-18T20:09:15.069Z,100551.86
2023-03-18T20:12:05.775Z,100552.61
2023-03-18T20:14:52.878Z,100546.13
2023-03-18T20:17:44.766Z,100545.84
2023-03-18T20:20:32.792Z,100543.88
2023-03-18T20:23:25.628Z,100548.09
2023-03-18T20:26:12.500Z,100547.52
2023-03-18T20:28:59.600Z,100543.43
2023-03-18T20:32:04.875Z,100541.62
2023-03-18T20:34:51.505Z,100542.81
2023-03-18T20:37:38.823Z,100541.63
2023-03-18T20:40:28.497Z,100542.73
2023-03-18T20:43:20.048Z,100539.84
2023-03-18T20:46:13.337Z,100539.98
2023-03-18T20:49:06.029Z,100540.24
2023-03-18T20:51:52.763Z,100539.40
2023-03-18T20:54:39.643Z,100543.61
2023-03-18T20:57:27.801Z,100542.16
2023-03-18T21:00:23.141Z,100541.75
2023-03-18T21:03:25.829Z,100543.58
2023-03-18T21:06:16.835Z,100542.40
2023-03-18T21:09:04.950Z,100538.18
2023-03-18T21:11:51.422Z,100538.28
2023-03-18T21:14:38.097Z,100537.02
2023-03-18T21:17:28.467Z,100536.04
2023-03-18T21:20:27.633Z,100536.34
2023-03-18T21:23:36.924Z,100537.61
2023-03-18T21:26:35.087Z,100537.83
2023-03-18T21:29:22.048Z,100535.59
2023-03-18T21:32:26.573Z,100536.36
2023-03-18T21:35:25.781Z,100536.75
2023-03-18T21:38:12.203Z,100535.20
2023-03-18T21:41:00.807Z,100536.29
2023-03-18T21:43:50.858Z,100532.86
2023-03-18T21:46:37.445Z,100531.45
2023-03-18T21:49:24.052Z,100531.83
2023-03-18T21:52:18.661Z,100529.91
2023-03-18T21:55:06.836Z,100533.30
2023-03-18T21:57:53.299Z,100531.31
2023-03-18T22:00:40.029Z,100527.09
2023-03-18T22:03:29.436Z,100530.69
2023-03-18T22:06:16.993Z,100527.02
2023-03-18T22:09:03.882Z,100524.91
2023-03-18T22:11:50.730Z,100526.56
2023-03-18T22:14:37.490Z,100524.72
2023-03-18T22:17:27.889Z,100522.19
2023-03-18T22:20:15.035Z,100522.77
2023-03-18T22:23:10.491Z,100526.33
2023-03-18T22:25:58.170Z,100529.69
2023-03-18T22:28:45.655Z,100527.67
2023-03-18T22:31:32.412Z,100525.88
2023-03-18T22:34:23.710Z,100532.35
2023-03-18T22:37:19.825Z,100531.52
2023-03-18T22:40:15.455Z,100533.14
2023-03-18T22:43:01.956Z,100532.40
2023-03-18T22:45:48.431Z,100534.70
2023-03-18T22:48:35.652Z,100532.90
2023-03-18T22:51:26.562Z,100533.68
2023-03-18T22:54:19.089Z,100535.23
2023-03-18T22:57:07.240Z,100535.55
2023-03-18T22:59:56.185Z,100534.34
2023-03-18T23:02:42.772Z,100538.30
2023-03-18T23:05:29.639Z,100532.93
2023-03-18T23:08:17.247Z,100531.29
2023-03-18T23:11:04.305Z,100537.51
2023-03-18T23:13:52.198Z,100535.94
2023-03-18T23:16:38.970Z,100537.61
2023-03-18T23:19:25.946Z,100535.04
2023-03-18T23:22:16.016Z,100533.45
2023-03-18T23:25:03.163Z,100531.91
2023-03-18T23:27:49.842Z,100534.04
2023-03-18T23:30:40.686Z,100534.56
2023-03-18T23:33:27.318Z,100531.38
2023-03-18T23:36:14.143Z,100536.98
2023-03-18T23:39:01.324Z,100535.16
2023-03-18T23:41:48.061Z,100532.14
2023-03-18T23:44:34.598Z,100528.81
2023-03-18T23:47:21.717Z,100530.87
2023-03-18T23:50:10.794Z,100526.66
2023-03-18T23:52:57.470Z,100527.23
2023-03-18T23:55:44.434Z,100525.04
2023-03-18T23:58:33.496Z,100525.79
